Time;durP1;ratioP1;P1;durP2;ratioP2;P2;SDS_P1;SDS_P2;PMS_P1;PMS_P2;Temp;Humidity;BMP_temperature;BMP_pressure;BME280_temperature;BME280_humidity;BME280_pressure;Samples;Min_cycle;Max_cycle;Signal;HPM_P1;HPM_P2
2021/03/15 00:00:47;;;;;;;10.50;3.40;;;7.10;99.90;;;;;;5005898;28;20619;-66
2021/03/15 00:03:18;;;;;;;11.60;3.20;;;7.10;99.90;;;;;;4998452;28;20720;-66
2021/03/15 00:05:49;;;;;;;9.17;3.67;;;7.10;99.90;;;;;;4980634;28;20687;-66
2021/03/15 00:08:15;;;;;;;9.63;3.60;;;7.00;99.90;;;;;;4988171;28;20652;-66
2021/03/15 00:10:45;;;;;;;10.57;3.97;;;7.00;99.90;;;;;;5001180;28;20656;-66
2021/03/15 00:13:23;;;;;;;6.90;2.90;;;7.00;99.90;;;;;;4986855;28;20225;-66
2021/03/15 00:15:57;;;;;;;7.43;2.10;;;7.00;99.90;;;;;;4995944;28;20661;-66
2021/03/15 00:18:26;;;;;;;6.80;2.40;;;6.90;99.90;;;;;;4982733;28;20659;-66
2021/03/15 00:21:06;;;;;;;5.43;2.70;;;6.80;99.90;;;;;;4998208;28;21020;-66
2021/03/15 00:23:42;;;;;;;4.00;1.73;;;6.70;99.90;;;;;;4977725;28;20643;-66
2021/03/15 00:26:07;;;;;;;7.53;1.70;;;6.70;99.90;;;;;;4999056;28;20636;-66
2021/03/15 00:28:36;;;;;;;3.87;1.43;;;6.50;99.90;;;;;;5007718;28;21149;-66
2021/03/15 00:31:04;;;;;;;4.00;2.03;;;6.50;99.90;;;;;;4979161;28;20218;-66
2021/03/15 00:33:35;;;;;;;6.23;2.60;;;6.50;99.90;;;;;;5004415;28;20757;-66
2021/03/15 00:36:03;;;;;;;6.17;2.10;;;6.50;99.90;;;;;;5001106;28;20967;-67
2021/03/15 00:38:32;;;;;;;4.77;2.30;;;6.40;99.90;;;;;;4982476;28;20628;-66
2021/03/15 00:41:02;;;;;;;7.90;2.63;;;6.30;99.90;;;;;;4999501;28;20769;-66
2021/03/15 00:43:35;;;;;;;12.30;3.20;;;6.40;99.90;;;;;;4997808;28;20973;-66
2021/03/15 00:46:05;;;;;;;8.40;3.00;;;6.30;99.90;;;;;;4999024;28;21242;-66
2021/03/15 00:48:51;;;;;;;13.73;3.70;;;6.30;99.90;;;;;;4997910;28;20654;-66
2021/03/15 00:51:19;;;;;;;6.90;2.70;;;6.30;99.90;;;;;;5007033;28;20770;-66
2021/03/15 00:53:50;;;;;;;7.80;2.63;;;6.30;99.90;;;;;;4982660;28;20657;-65
2021/03/15 00:56:23;;;;;;;9.60;2.60;;;6.30;99.90;;;;;;4996851;28;20645;-66
2021/03/15 00:59:01;;;;;;;7.33;2.70;;;6.30;99.90;;;;;;4974720;28;22667;-66
2021/03/15 01:01:41;;;;;;;10.60;3.10;;;6.30;99.90;;;;;;4998261;28;20584;-66
2021/03/15 01:04:16;;;;;;;6.40;2.50;;;6.40;99.90;;;;;;4996619;28;20636;-67
2021/03/15 01:06:43;;;;;;;9.63;2.70;;;6.40;99.90;;;;;;4978840;28;21081;-66
2021/03/15 01:09:20;;;;;;;6.33;3.23;;;6.50;99.90;;;;;;4996210;28;20672;-65
2021/03/15 01:11:58;;;;;;;10.30;3.00;;;6.50;99.90;;;;;;4981826;28;20694;-66
2021/03/15 01:14:30;;;;;;;7.20;2.40;;;6.40;99.90;;;;;;4994055;28;20648;-65
2021/03/15 01:16:58;;;;;;;6.03;2.60;;;6.40;99.90;;;;;;5006047;28;20714;-66
2021/03/15 01:19:27;;;;;;;7.70;3.17;;;6.30;99.90;;;;;;5000042;28;21151;-67
2021/03/15 01:22:05;;;;;;;4.50;2.43;;;6.30;99.90;;;;;;4997293;28;20612;-65
2021/03/15 01:24:46;;;;;;;6.10;2.20;;;6.30;99.90;;;;;;4997178;28;20643;-66
2021/03/15 01:27:17;;;;;;;6.87;2.83;;;6.40;99.90;;;;;;4984103;28;20747;-66
2021/03/15 01:30:02;;;;;;;5.60;2.40;;;6.30;99.90;;;;;;4979507;28;20668;-66
2021/03/15 01:32:30;;;;;;;8.93;3.43;;;6.40;99.90;;;;;;4980791;28;21166;-66
2021/03/15 01:35:01;;;;;;;5.23;2.90;;;6.40;99.90;;;;;;4994053;28;20646;-65
2021/03/15 01:37:44;;;;;;;6.57;2.33;;;6.30;99.90;;;;;;5015941;28;20648;-65
2021/03/15 01:40:19;;;;;;;8.43;2.70;;;6.30;99.90;;;;;;5020880;28;20639;-66
2021/03/15 01:42:53;;;;;;;10.23;2.60;;;6.20;99.90;;;;;;5021486;28;20708;-65
2021/03/15 01:45:22;;;;;;;5.70;2.57;;;6.30;99.90;;;;;;4998000;28;20683;-65
2021/03/15 01:47:54;;;;;;;8.10;2.63;;;6.30;99.90;;;;;;5014593;28;20628;-67
2021/03/15 01:50:23;;;;;;;3.77;2.27;;;6.30;99.90;;;;;;4994345;28;20688;-67
2021/03/15 01:52:54;;;;;;;3.80;2.30;;;6.40;99.90;;;;;;5007147;28;20636;-66
2021/03/15 01:55:24;;;;;;;7.07;2.43;;;6.30;99.90;;;;;;4996842;28;20601;-66
2021/03/15 01:57:56;;;;;;;9.23;2.90;;;6.30;99.90;;;;;;4994660;28;20732;-66
2021/03/15 02:00:28;;;;;;;5.10;2.43;;;6.20;99.90;;;;;;5002009;28;20608;-65
2021/03/15 02:03:20;;;;;;;7.07;3.13;;;6.30;99.90;;;;;;4993380;28;21276;-67
2021/03/15 02:06:07;;;;;;;14.50;3.30;;;6.20;99.90;;;;;;4996982;28;20651;-66
2021/03/15 02:08:45;;;;;;;7.63;3.50;;;6.10;99.90;;;;;;4993959;28;20600;-65
2021/03/15 02:11:41;;;;;;;5.03;3.07;;;6.20;99.90;;;;;;4996273;28;22035;-66
2021/03/15 02:14:31;;;;;;;7.27;2.73;;;6.20;99.90;;;;;;5001963;28;20702;-66
2021/03/15 02:17:21;;;;;;;9.47;3.30;;;6.20;99.90;;;;;;4996565;28;20701;-66
2021/03/15 02:19:56;;;;;;;10.87;4.03;;;6.20;99.90;;;;;;4977256;28;20679;-66
2021/03/15 02:23:05;;;;;;;9.57;3.87;;;6.20;99.90;;;;;;4996466;28;20663;-65
2021/03/15 02:25:51;;;;;;;8.60;3.60;;;6.30;99.90;;;;;;4957528;28;20684;-66
2021/03/15 02:32:12;;;;;;;9.20;4.43;;;6.20;99.90;;;;;;5005833;28;21057;-65
2021/03/15 02:35:14;;;;;;;9.23;3.70;;;6.20;99.90;;;;;;5015300;28;20762;-66
2021/03/15 02:37:53;;;;;;;8.13;4.17;;;6.20;99.90;;;;;;4996433;28;20639;-66
2021/03/15 02:40:33;;;;;;;10.80;4.53;;;6.20;99.90;;;;;;4996784;28;20691;-66
2021/03/15 02:43:16;;;;;;;16.73;4.90;;;6.10;99.90;;;;;;4978534;28;20858;-66
2021/03/15 02:45:49;;;;;;;11.07;4.50;;;6.20;99.90;;;;;;4999482;28;20694;-66
2021/03/15 02:48:23;;;;;;;12.47;4.70;;;6.20;99.90;;;;;;4982773;28;20687;-66
2021/03/15 02:50:52;;;;;;;11.17;4.10;;;6.20;99.90;;;;;;4995586;28;20745;-66
2021/03/15 02:53:24;;;;;;;10.73;4.30;;;6.20;99.90;;;;;;4981228;28;20656;-66
2021/03/15 02:56:01;;;;;;;8.63;3.93;;;6.10;99.90;;;;;;4975015;28;21318;-66
2021/03/15 02:58:40;;;;;;;;;;;;;;;;;;;;;
2021/03/15 03:01:12;;;;;;;10.17;5.00;;;6.10;99.90;;;;;;4994437;28;20596;-68
2021/03/15 03:03:41;;;;;;;11.63;4.50;;;6.10;99.90;;;;;;5005390;28;21244;-67
2021/03/15 03:06:09;;;;;;;7.70;4.70;;;6.20;99.90;;;;;;5003748;28;20739;-67
2021/03/15 03:08:45;;;;;;;10.37;4.20;;;6.20;99.90;;;;;;4979376;28;20616;-68
2021/03/15 03:11:16;;;;;;;9.07;4.17;;;6.20;99.90;;;;;;4992649;28;20674;-67
2021/03/15 03:14:07;;;;;;;9.10;3.80;;;6.20;99.90;;;;;;5000623;28;20809;-68
2021/03/15 03:16:37;;;;;;;11.77;4.13;;;6.20;99.90;;;;;;5003574;28;20666;-67
2021/03/15 03:19:08;;;;;;;8.57;3.90;;;6.10;99.90;;;;;;4998460;28;20707;-68
2021/03/15 03:21:38;;;;;;;9.33;4.90;;;6.10;99.90;;;;;;5001517;28;20650;-67
2021/03/15 03:26:58;;;;;;;11.40;4.30;;;6.10;99.90;;;;;;5000666;28;20644;-68
2021/03/15 03:29:28;;;;;;;10.07;3.80;;;6.10;99.90;;;;;;5006752;28;21188;-68
2021/03/15 03:32:09;;;;;;;;;;;;;;;;;;;;;
2021/03/15 03:34:41;;;;;;;7.67;3.93;;;6.10;99.90;;;;;;4997351;28;20655;-68
2021/03/15 03:37:08;;;;;;;9.97;4.80;;;6.20;99.90;;;;;;5001614;28;20636;-68
2021/03/15 03:39:53;;;;;;;8.00;3.80;;;6.20;99.90;;;;;;4999363;28;20648;-69
2021/03/15 03:42:21;;;;;;;6.80;4.13;;;6.20;99.90;;;;;;4994885;28;20967;-68
2021/03/15 03:45:05;;;;;;;11.30;5.30;;;6.10;99.90;;;;;;4985173;28;21047;-68
2021/03/15 03:47:37;;;;;;;10.20;5.10;;;6.10;99.90;;;;;;4981425;28;20746;-68
2021/03/15 03:50:11;;;;;;;8.53;6.47;;;6.10;99.90;;;;;;4981266;28;21057;-68
2021/03/15 03:52:48;;;;;;;;;;;;;;;;;;;;;
2021/03/15 03:55:20;;;;;;;9.03;5.50;;;6.10;99.90;;;;;;4994269;28;20602;-68
2021/03/15 03:57:53;;;;;;;12.60;5.33;;;6.10;99.90;;;;;;4999055;28;20677;-68
2021/03/15 04:00:30;;;;;;;8.87;4.90;;;6.10;99.90;;;;;;4999652;28;20585;-68
2021/03/15 04:03:09;;;;;;;10.30;5.53;;;6.10;99.90;;;;;;4998730;28;20758;-67
2021/03/15 04:05:42;;;;;;;9.57;4.93;;;6.10;99.90;;;;;;4984218;28;20632;-68
2021/03/15 04:08:16;;;;;;;11.07;5.07;;;6.20;99.90;;;;;;4998697;28;21193;-68
2021/03/15 04:11:01;;;;;;;7.60;4.43;;;6.10;99.90;;;;;;4990877;28;20725;-68
2021/03/15 04:13:30;;;;;;;9.23;4.37;;;6.10;99.90;;;;;;4995648;28;20635;-68
2021/03/15 04:16:05;;;;;;;7.07;4.60;;;6.20;99.90;;;;;;4996921;28;21015;-68
2021/03/15 04:18:47;;;;;;;8.17;4.50;;;6.10;99.90;;;;;;4997193;28;20612;-68
2021/03/15 04:21:21;;;;;;;8.23;5.00;;;6.10;99.90;;;;;;4997082;28;20727;-68
2021/03/15 04:24:01;;;;;;;8.47;4.83;;;6.10;99.90;;;;;;4998859;28;20652;-68
2021/03/15 04:26:32;;;;;;;6.00;4.00;;;6.10;99.90;;;;;;4987313;28;21100;-68
2021/03/15 04:29:04;;;;;;;12.27;4.40;;;6.10;99.90;;;;;;5000090;28;21267;-68
2021/03/15 04:31:33;;;;;;;9.97;4.30;;;6.10;99.90;;;;;;4994971;28;21067;-68
2021/03/15 04:34:10;;;;;;;6.60;4.00;;;6.10;99.90;;;;;;4996902;28;20629;-66
2021/03/15 04:36:49;;;;;;;8.37;4.57;;;6.00;99.90;;;;;;4998895;28;20705;-67
2021/03/15 04:39:16;;;;;;;6.80;4.07;;;6.00;99.90;;;;;;5000378;28;20698;-67
2021/03/15 04:41:47;;;;;;;8.13;4.20;;;6.10;99.90;;;;;;5002379;28;20624;-66
2021/03/15 04:44:23;;;;;;;;;;;;;;;;;;;;;
2021/03/15 04:46:52;;;;;;;7.90;6.27;;;6.00;99.90;;;;;;4999869;28;20685;-67
2021/03/15 04:49:28;;;;;;;10.77;5.50;;;6.00;99.90;;;;;;5000054;28;20611;-67
2021/03/15 04:51:56;;;;;;;7.63;5.17;;;6.00;99.90;;;;;;4999230;28;20592;-66
2021/03/15 04:54:27;;;;;;;6.87;4.90;;;5.80;99.90;;;;;;5000827;28;20840;-65
2021/03/15 04:56:59;;;;;;;6.50;4.33;;;5.90;99.90;;;;;;4994417;28;23204;-65
2021/03/15 04:59:38;;;;;;;7.00;3.77;;;5.90;99.90;;;;;;4978764;28;20619;-66
2021/03/15 05:02:05;;;;;;;6.10;4.13;;;5.80;99.90;;;;;;4995348;28;20731;-66
2021/03/15 05:04:43;;;;;;;4.33;3.77;;;5.80;99.90;;;;;;4996087;28;20677;-66
2021/03/15 05:07:19;;;;;;;4.70;4.03;;;5.80;99.90;;;;;;4978980;28;20668;-65
2021/03/15 05:09:55;;;;;;;6.23;3.50;;;5.90;99.90;;;;;;4994642;23;20689;-62
2021/03/15 05:12:28;;;;;;;4.20;3.80;;;6.00;99.90;;;;;;4982243;28;20645;-64
2021/03/15 05:15:06;;;;;;;;;;;;;;;;;;;;;
2021/03/15 05:17:38;;;;;;;8.17;3.83;;;5.90;99.90;;;;;;4985911;28;20593;-64
2021/03/15 05:20:10;;;;;;;7.27;4.00;;;5.90;99.90;;;;;;4967987;28;20736;-65
2021/03/15 05:22:41;;;;;;;7.47;4.07;;;5.90;99.90;;;;;;4960919;28;20676;-64
2021/03/15 05:25:17;;;;;;;5.70;3.70;;;5.90;99.90;;;;;;4975627;28;20615;-65
2021/03/15 05:27:54;;;;;;;5.70;3.87;;;5.90;99.90;;;;;;4961701;28;20616;-64
2021/03/15 05:30:21;;;;;;;5.00;3.73;;;6.00;99.90;;;;;;4978867;28;20717;-64
2021/03/15 05:32:53;;;;;;;6.10;3.70;;;6.10;99.90;;;;;;4976650;28;21339;-64
2021/03/15 05:35:25;;;;;;;6.27;4.50;;;6.10;99.90;;;;;;4979587;28;20845;-65
2021/03/15 05:37:56;;;;;;;7.40;4.87;;;6.10;99.90;;;;;;4963125;28;20629;-65
2021/03/15 05:40:32;;;;;;;11.47;5.40;;;6.10;99.90;;;;;;4981946;28;20741;-65
2021/03/15 05:43:26;;;;;;;9.90;4.77;;;6.10;99.90;;;;;;4975054;28;20733;-64
2021/03/15 05:46:07;;;;;;;7.00;4.87;;;6.10;99.90;;;;;;4976314;28;20628;-64
2021/03/15 05:49:04;;;;;;;5.97;4.43;;;6.10;99.90;;;;;;4959179;28;20661;-64
2021/03/15 05:51:58;;;;;;;7.33;4.60;;;6.00;99.90;;;;;;4960143;28;20653;-64
2021/03/15 05:54:59;;;;;;;11.93;5.00;;;5.90;99.90;;;;;;4966297;28;20707;-64
2021/03/15 05:57:36;;;;;;;6.47;4.30;;;6.00;99.90;;;;;;4976020;28;21266;-64
2021/03/15 06:00:43;;;;;;;5.90;4.40;;;6.00;99.90;;;;;;4982096;28;20703;-64
2021/03/15 06:03:43;;;;;;;6.10;4.73;;;6.00;99.90;;;;;;4958705;28;20667;-65
2021/03/15 06:06:23;;;;;;;8.50;4.83;;;6.00;99.90;;;;;;4963291;28;20762;-65
2021/03/15 06:08:58;;;;;;;7.80;4.50;;;6.00;99.90;;;;;;4975151;28;20652;-65
2021/03/15 06:11:29;;;;;;;8.33;4.53;;;6.00;99.90;;;;;;4983215;28;20625;-63
2021/03/15 06:14:00;;;;;;;10.10;4.20;;;6.00;99.90;;;;;;4964487;28;21715;-65
2021/03/15 06:16:29;;;;;;;7.10;4.40;;;6.00;99.90;;;;;;4961273;28;20696;-64
2021/03/15 06:19:02;;;;;;;6.07;4.43;;;6.10;99.90;;;;;;4964194;28;20656;-64
2021/03/15 06:21:30;;;;;;;8.27;4.30;;;6.10;99.90;;;;;;4981937;28;20613;-64
2021/03/15 06:23:59;;;;;;;8.20;4.50;;;6.10;99.90;;;;;;4980121;28;20688;-64
2021/03/15 06:26:32;;;;;;;8.20;4.23;;;6.10;99.90;;;;;;4975199;28;20665;-65
2021/03/15 06:29:04;;;;;;;6.53;4.00;;;6.10;99.90;;;;;;4962708;28;20653;-64
2021/03/15 06:31:51;;;;;;;5.40;4.10;;;6.20;99.90;;;;;;4976425;28;20657;-65
2021/03/15 06:34:21;;;;;;;6.40;3.90;;;6.20;99.90;;;;;;4975282;28;20792;-64
2021/03/15 06:36:47;;;;;;;7.60;4.20;;;6.20;99.90;;;;;;4976202;28;20643;-64
2021/03/15 06:39:19;;;;;;;7.60;3.97;;;6.20;99.90;;;;;;4964822;28;20751;-64
2021/03/15 06:41:47;;;;;;;6.37;4.40;;;6.30;99.90;;;;;;4970187;28;20193;-64
2021/03/15 06:44:12;;;;;;;5.90;4.40;;;6.30;99.90;;;;;;4938088;28;21487;-64
2021/03/15 06:46:40;;;;;;;9.43;5.43;;;6.30;99.90;;;;;;4947479;28;20627;-64
2021/03/15 06:49:11;;;;;;;7.03;4.37;;;6.30;99.90;;;;;;4963582;28;20211;-64
2021/03/15 06:51:36;;;;;;;8.10;4.43;;;6.40;99.90;;;;;;4970481;28;20711;-64
2021/03/15 06:54:02;;;;;;;6.70;4.33;;;6.40;99.90;;;;;;4971016;28;21224;-63
2021/03/15 06:56:30;;;;;;;10.50;4.60;;;6.40;99.90;;;;;;4974543;28;20209;-63
2021/03/15 06:58:59;;;;;;;10.20;4.13;;;6.30;99.90;;;;;;4974521;28;20209;-64
2021/03/15 07:01:26;;;;;;;5.70;3.70;;;6.30;99.90;;;;;;4976060;28;20625;-63
2021/03/15 07:04:08;;;;;;;8.00;4.30;;;6.30;99.90;;;;;;4938271;28;20661;-64
2021/03/15 07:06:39;;;;;;;7.17;4.10;;;6.30;99.90;;;;;;4950214;28;20628;-64
2021/03/15 07:09:12;;;;;;;7.10;3.97;;;6.30;99.90;;;;;;4970999;28;20692;-64
2021/03/15 07:11:39;;;;;;;6.80;3.70;;;6.30;99.90;;;;;;4976502;28;21191;-64
2021/03/15 07:14:04;;;;;;;9.37;4.83;;;6.30;99.90;;;;;;4973387;28;21246;-64
2021/03/15 07:16:31;;;;;;;6.00;3.43;;;6.30;99.90;;;;;;4974201;28;20624;-64
2021/03/15 07:19:22;;;;;;;10.07;4.20;;;6.30;99.90;;;;;;4971206;28;20727;-63
2021/03/15 07:21:48;;;;;;;6.80;4.00;;;6.30;99.90;;;;;;4975629;28;20633;-64
2021/03/15 07:24:13;;;;;;;10.60;3.90;;;6.40;99.90;;;;;;4969013;28;21338;-64
2021/03/15 07:26:44;;;;;;;6.70;3.73;;;6.30;99.90;;;;;;4968962;28;20202;-64
2021/03/15 07:29:20;;;;;;;7.43;4.13;;;6.40;99.90;;;;;;4948993;28;20400;-64
2021/03/15 07:31:52;;;;;;;5.70;3.47;;;6.50;99.90;;;;;;4965924;28;20628;-63
2021/03/15 07:34:21;;;;;;;8.37;3.70;;;6.50;99.90;;;;;;4968648;28;20655;-64
2021/03/15 07:36:50;;;;;;;5.00;3.77;;;6.40;99.90;;;;;;4977109;28;20617;-64
2021/03/15 07:39:16;;;;;;;8.20;4.07;;;6.50;99.90;;;;;;4972962;28;20791;-64
2021/03/15 07:41:45;;;;;;;8.23;3.90;;;6.40;99.90;;;;;;4951857;28;20984;-66
2021/03/15 07:44:18;;;;;;;6.33;3.40;;;6.30;99.90;;;;;;4967926;28;20752;-64
2021/03/15 07:46:45;;;;;;;7.03;3.30;;;6.30;99.90;;;;;;4968504;28;20627;-64
2021/03/15 07:49:24;;;;;;;6.67;3.77;;;6.40;99.90;;;;;;4966042;28;20932;-63
2021/03/15 07:51:56;;;;;;;7.40;3.60;;;6.30;99.90;;;;;;4953674;28;20646;-63
2021/03/15 07:54:27;;;;;;;4.67;3.23;;;6.30;99.90;;;;;;4946531;28;20649;-69
2021/03/15 07:57:12;;;;;;;5.80;3.37;;;6.30;99.90;;;;;;4949491;28;20610;-64
2021/03/15 07:59:39;;;;;;;10.83;4.20;;;6.20;99.90;;;;;;4969346;28;20801;-64
2021/03/15 08:02:06;;;;;;;8.40;3.73;;;6.30;99.90;;;;;;4956931;28;20660;-64
2021/03/15 08:04:32;;;;;;;7.47;4.10;;;6.20;99.90;;;;;;4952683;28;20626;-63
2021/03/15 08:06:59;;;;;;;6.33;4.20;;;6.30;99.90;;;;;;4952677;28;20639;-63
2021/03/15 08:09:25;;;;;;;11.43;4.40;;;6.40;99.90;;;;;;4949276;28;20340;-64
2021/03/15 08:11:52;;;;;;;5.13;3.80;;;6.30;99.90;;;;;;4971364;28;20624;-63
2021/03/15 08:14:20;;;;;;;7.50;4.10;;;6.30;99.90;;;;;;4953207;28;20309;-64
2021/03/15 08:16:47;;;;;;;6.40;4.07;;;6.30;99.90;;;;;;4972948;28;20656;-63
2021/03/15 08:19:16;;;;;;;5.73;3.60;;;6.40;99.90;;;;;;4951268;28;20844;-63
2021/03/15 08:21:45;;;;;;;7.70;3.80;;;6.50;99.90;;;;;;4969677;28;20621;-64
2021/03/15 08:24:13;;;;;;;5.73;3.57;;;6.50;99.90;;;;;;4963285;28;20752;-65
2021/03/15 08:26:40;;;;;;;6.30;3.20;;;6.60;99.90;;;;;;4970608;28;20679;-64
2021/03/15 08:29:06;;;;;;;10.20;3.90;;;6.50;99.90;;;;;;4968684;28;20668;-64
2021/03/15 08:31:46;;;;;;;5.10;3.20;;;6.60;99.90;;;;;;4980059;28;20660;-64
2021/03/15 08:34:13;;;;;;;9.73;4.20;;;6.60;99.90;;;;;;4976509;28;20644;-64
2021/03/15 08:36:43;;;;;;;9.30;4.23;;;6.60;99.90;;;;;;4980582;28;20605;-64
2021/03/15 08:39:27;;;;;;;8.70;3.73;;;6.80;99.90;;;;;;4972194;28;21031;-64
2021/03/15 08:42:14;;;;;;;10.33;3.23;;;6.80;99.90;;;;;;4978733;28;20716;-64
2021/03/15 08:44:40;;;;;;;7.67;3.53;;;6.90;99.90;;;;;;4973173;28;20629;-64
2021/03/15 08:47:07;;;;;;;8.13;3.23;;;6.90;99.90;;;;;;4969275;28;25145;-64
2021/03/15 08:49:35;;;;;;;8.20;3.50;;;6.90;99.90;;;;;;4962580;28;21001;-64
2021/03/15 08:52:01;;;;;;;8.90;3.30;;;6.90;99.90;;;;;;4957676;28;20664;-64
2021/03/15 08:54:48;;;;;;;8.50;3.40;;;7.10;99.90;;;;;;4979301;28;20617;-64
2021/03/15 08:57:28;;;;;;;6.67;3.20;;;7.10;99.90;;;;;;4972056;28;20206;-65
2021/03/15 08:59:55;;;;;;;6.77;2.73;;;7.00;99.90;;;;;;4984489;28;20654;-66
2021/03/15 09:02:34;;;;;;;6.20;2.70;;;7.00;99.90;;;;;;4971904;28;20641;-65
2021/03/15 09:05:19;;;;;;;6.37;2.53;;;7.00;99.90;;;;;;4956719;28;21230;-65
2021/03/15 09:07:46;;;;;;;7.60;2.63;;;7.10;99.90;;;;;;4954784;28;20688;-65
2021/03/15 09:10:24;;;;;;;7.10;3.10;;;7.10;99.90;;;;;;4962889;28;20691;-65
2021/03/15 09:13:12;;;;;;;8.40;3.67;;;7.10;99.90;;;;;;4978301;28;20637;-64
2021/03/15 09:15:40;;;;;;;11.03;3.20;;;7.10;99.90;;;;;;4962832;28;20651;-65
2021/03/15 09:18:37;;;;;;;6.50;2.67;;;7.10;99.90;;;;;;4961304;28;21145;-66
2021/03/15 09:21:23;;;;;;;13.43;4.37;;;7.10;99.90;;;;;;4973189;28;20716;-65
2021/03/15 09:23:49;;;;;;;4.30;2.70;;;7.30;99.90;;;;;;4956726;28;21009;-64
2021/03/15 09:26:30;;;;;;;10.50;2.93;;;7.30;99.90;;;;;;4976873;28;20625;-64
2021/03/15 09:28:57;;;;;;;6.13;2.70;;;7.30;99.90;;;;;;4970368;28;20209;-64
2021/03/15 09:31:26;;;;;;;9.97;2.73;;;7.40;99.90;;;;;;4973938;28;21251;-64
2021/03/15 09:33:52;;;;;;;8.97;2.80;;;7.60;99.90;;;;;;4967373;28;21507;-64
2021/03/15 09:36:28;;;;;;;6.67;2.17;;;7.70;99.90;;;;;;4960267;28;20637;-64
2021/03/15 09:38:55;;;;;;;11.20;2.67;;;7.70;99.90;;;;;;4954625;28;20210;-64
2021/03/15 09:41:25;;;;;;;6.93;2.50;;;7.60;99.90;;;;;;4974305;28;20617;-64
2021/03/15 09:43:51;;;;;;;7.93;3.00;;;7.60;99.90;;;;;;4973726;28;21265;-64
2021/03/15 09:46:25;;;;;;;7.97;2.90;;;7.70;99.90;;;;;;4954687;28;21205;-64
2021/03/15 09:48:50;;;;;;;8.97;3.30;;;7.60;99.90;;;;;;4973990;28;20656;-64
2021/03/15 09:51:24;;;;;;;9.90;2.50;;;7.60;99.90;;;;;;4972273;28;20653;-64
2021/03/15 09:53:50;;;;;;;9.47;3.03;;;7.70;99.90;;;;;;4972178;28;20213;-64
2021/03/15 09:56:16;;;;;;;11.33;3.13;;;7.70;99.90;;;;;;4970919;28;20688;-64
2021/03/15 09:58:43;;;;;;;4.43;2.50;;;7.80;99.90;;;;;;4951661;28;20641;-64
2021/03/15 10:01:13;;;;;;;10.10;2.80;;;7.80;99.90;;;;;;4972765;28;20209;-64
2021/03/15 10:03:39;;;;;;;12.13;3.13;;;7.90;99.90;;;;;;4967573;28;20656;-64
2021/03/15 10:06:05;;;;;;;7.27;2.33;;;7.80;99.90;;;;;;4971197;28;20625;-65
2021/03/15 10:08:33;;;;;;;11.33;2.63;;;7.70;99.90;;;;;;4967621;28;20238;-64
2021/03/15 10:10:59;;;;;;;6.50;3.00;;;7.70;99.90;;;;;;4966994;28;20776;-64
2021/03/15 10:13:24;;;;;;;10.60;3.07;;;7.80;99.90;;;;;;4973198;28;20741;-64
2021/03/15 10:15:50;;;;;;;8.70;2.80;;;7.80;99.90;;;;;;4972133;28;20621;-64
2021/03/15 10:18:20;;;;;;;13.47;2.90;;;7.90;99.90;;;;;;4952046;28;20661;-65
2021/03/15 10:20:49;;;;;;;7.23;2.50;;;7.90;99.90;;;;;;4972317;28;20640;-64
2021/03/15 10:23:17;;;;;;;4.77;2.50;;;7.80;99.90;;;;;;4967051;28;20640;-64
2021/03/15 10:26:15;;;;;;;15.00;3.40;;;7.80;99.90;;;;;;4967085;28;21258;-64
2021/03/15 10:28:41;;;;;;;7.50;2.40;;;7.70;99.90;;;;;;4954840;28;20716;-64
2021/03/15 10:31:07;;;;;;;9.03;3.07;;;7.80;99.90;;;;;;4973738;28;20698;-64
2021/03/15 10:33:33;;;;;;;12.20;2.90;;;7.90;99.90;;;;;;4965951;28;20232;-64
2021/03/15 10:35:59;;;;;;;11.33;3.30;;;7.90;99.90;;;;;;4957941;28;20988;-64
2021/03/15 10:38:27;;;;;;;13.87;3.60;;;8.00;99.90;;;;;;4973314;28;20214;-64
2021/03/15 10:40:55;;;;;;;11.70;3.67;;;8.00;99.90;;;;;;4970341;28;20196;-64
2021/03/15 10:43:25;;;;;;;10.13;2.60;;;8.10;99.90;;;;;;4970611;28;20658;-64
2021/03/15 10:45:52;;;;;;;10.33;3.70;;;8.10;99.90;;;;;;4966707;28;20622;-64
2021/03/15 10:48:20;;;;;;;15.07;3.53;;;8.10;99.90;;;;;;4968591;28;20677;-65
2021/03/15 10:50:47;;;;;;;15.87;3.27;;;8.10;99.90;;;;;;4954485;28;20664;-64
2021/03/15 10:53:22;;;;;;;12.00;3.00;;;8.10;99.90;;;;;;4952397;28;21011;-64
2021/03/15 10:55:49;;;;;;;9.40;3.73;;;8.00;99.90;;;;;;4972613;28;21094;-64
2021/03/15 10:58:16;;;;;;;11.77;3.00;;;8.00;99.90;;;;;;4958613;28;20707;-64
2021/03/15 11:01:00;;;;;;;14.13;3.20;;;7.90;99.90;;;;;;4965902;28;20679;-64
2021/03/15 11:03:29;;;;;;;13.47;3.17;;;7.80;99.90;;;;;;4972169;28;20645;-64
2021/03/15 11:06:10;;;;;;;13.93;4.00;;;8.00;99.90;;;;;;4967532;28;20671;-64
2021/03/15 11:08:37;;;;;;;12.03;3.70;;;7.90;99.90;;;;;;4969647;28;20669;-64
2021/03/15 11:11:23;;;;;;;6.77;2.23;;;7.90;99.90;;;;;;4968459;23;20746;-65
2021/03/15 11:13:51;;;;;;;9.10;2.80;;;7.80;99.90;;;;;;4970702;28;20771;-65
2021/03/15 11:16:30;;;;;;;10.33;2.97;;;7.70;99.90;;;;;;4952819;28;20712;-65
2021/03/15 11:19:08;;;;;;;9.00;3.43;;;7.60;99.90;;;;;;4973467;28;20630;-63
2021/03/15 11:21:39;;;;;;;13.23;3.80;;;7.60;99.90;;;;;;4953623;28;21490;-65
2021/03/15 11:24:05;;;;;;;10.90;3.27;;;7.60;99.90;;;;;;4935493;28;20773;-65
2021/03/15 11:26:48;;;;;;;7.77;2.87;;;7.60;99.90;;;;;;4956376;28;20726;-65
2021/03/15 11:29:15;;;;;;;11.40;3.20;;;7.80;99.90;;;;;;4956661;28;20597;-67
2021/03/15 11:31:51;;;;;;;12.60;3.30;;;7.90;99.90;;;;;;4952634;28;20679;-65
2021/03/15 11:34:20;;;;;;;8.43;2.73;;;7.90;99.90;;;;;;4938845;28;20646;-66
2021/03/15 11:36:47;;;;;;;10.00;2.27;;;7.70;99.90;;;;;;4949445;28;20684;-68
2021/03/15 11:39:14;;;;;;;8.20;2.20;;;7.70;99.90;;;;;;4954730;28;20638;-67
2021/03/15 11:41:42;;;;;;;12.97;2.30;;;7.70;99.90;;;;;;4957524;28;20756;-66
2021/03/15 11:44:08;;;;;;;9.30;2.87;;;7.60;99.90;;;;;;4958492;28;20641;-68
2021/03/15 11:46:33;;;;;;;11.73;2.90;;;7.60;99.90;;;;;;4960363;28;20709;-65
2021/03/15 11:48:59;;;;;;;6.80;2.23;;;7.80;99.90;;;;;;4960628;28;20654;-64
2021/03/15 11:51:25;;;;;;;9.93;2.67;;;7.90;99.90;;;;;;4958478;28;20226;-68
2021/03/15 11:53:51;;;;;;;7.73;2.40;;;8.00;99.90;;;;;;4956837;28;20221;-69
2021/03/15 11:56:16;;;;;;;8.53;2.80;;;8.10;99.90;;;;;;4954972;28;20618;-67
2021/03/15 11:58:42;;;;;;;9.47;2.70;;;8.30;99.90;;;;;;4949709;28;20242;-68
2021/03/15 12:01:09;;;;;;;8.93;2.80;;;8.50;99.90;;;;;;4951974;28;20219;-66
2021/03/15 12:03:35;;;;;;;11.23;3.53;;;8.40;99.90;;;;;;4957980;28;20601;-68
2021/03/15 12:06:01;;;;;;;10.37;2.53;;;8.40;99.90;;;;;;4964206;28;20709;-68
2021/03/15 12:08:27;;;;;;;10.70;2.90;;;8.30;99.90;;;;;;4963289;28;20637;-69
2021/03/15 12:10:53;;;;;;;6.43;2.40;;;8.20;99.90;;;;;;4961025;28;20670;-68
2021/03/15 12:13:19;;;;;;;4.70;2.10;;;8.10;99.90;;;;;;4961980;28;20239;-68
2021/03/15 12:15:44;;;;;;;5.30;2.03;;;8.00;99.90;;;;;;4958449;28;20677;-68
2021/03/15 12:18:11;;;;;;;6.07;2.20;;;7.90;99.90;;;;;;4956584;28;20183;-68
2021/03/15 12:20:37;;;;;;;3.07;1.40;;;7.90;99.90;;;;;;4946483;28;20299;-67
2021/03/15 12:23:03;;;;;;;3.90;1.23;;;7.70;99.90;;;;;;4954084;28;20662;-68
2021/03/15 12:25:30;;;;;;;1.90;1.10;;;7.80;99.90;;;;;;4956518;28;20624;-68
2021/03/15 12:27:56;;;;;;;2.30;1.37;;;7.80;99.90;;;;;;4961852;28;20646;-67
2021/03/15 12:30:22;;;;;;;2.30;1.20;;;7.80;99.90;;;;;;4963070;28;20793;-68
2021/03/15 12:32:49;;;;;;;3.63;1.47;;;7.80;99.90;;;;;;4958494;28;20314;-68
2021/03/15 12:35:18;;;;;;;1.93;1.10;;;7.70;99.90;;;;;;4961662;28;20639;-68
2021/03/15 12:37:47;;;;;;;1.60;1.00;;;7.60;99.90;;;;;;4964142;28;20934;-68
2021/03/15 12:40:12;;;;;;;1.40;1.10;;;7.60;99.90;;;;;;4960242;28;20650;-67
2021/03/15 12:42:38;;;;;;;1.23;1.00;;;7.50;99.90;;;;;;4938064;28;21386;-68
2021/03/15 12:45:09;;;;;;;2.00;0.90;;;7.60;99.90;;;;;;4965620;28;21933;-67
2021/03/15 12:47:34;;;;;;;1.53;1.30;;;7.40;99.90;;;;;;4950911;28;20226;-67
2021/03/15 12:50:00;;;;;;;2.30;1.10;;;7.40;99.90;;;;;;4966593;28;20785;-68
2021/03/15 12:52:29;;;;;;;2.00;1.00;;;7.50;99.90;;;;;;4956140;28;20724;-68
2021/03/15 12:54:55;;;;;;;3.10;1.70;;;7.60;99.90;;;;;;4944510;28;20195;-68
2021/03/15 12:57:21;;;;;;;2.67;1.37;;;7.50;99.90;;;;;;4960303;28;20630;-68
2021/03/15 12:59:47;;;;;;;4.87;1.37;;;7.70;99.90;;;;;;4946363;28;20618;-68
2021/03/15 13:02:12;;;;;;;3.17;1.37;;;7.70;99.90;;;;;;4963774;28;20662;-67
2021/03/15 13:04:38;;;;;;;3.50;1.40;;;7.70;99.90;;;;;;4963985;28;20191;-67
2021/03/15 13:07:03;;;;;;;1.93;1.73;;;7.60;99.90;;;;;;4954757;28;20221;-68
2021/03/15 13:09:29;;;;;;;4.53;1.53;;;7.60;99.90;;;;;;4935413;28;20215;-68
2021/03/15 13:11:57;;;;;;;2.77;1.50;;;7.60;99.90;;;;;;4959866;28;20221;-68
2021/03/15 13:14:24;;;;;;;1.93;1.60;;;7.70;99.90;;;;;;4953216;28;20569;-67
2021/03/15 13:16:50;;;;;;;4.40;1.67;;;7.60;99.90;;;;;;4956239;28;20638;-67
2021/03/15 13:19:15;;;;;;;2.67;1.53;;;7.70;99.90;;;;;;4953266;28;20641;-67
2021/03/15 13:21:41;;;;;;;3.60;1.63;;;7.60;99.90;;;;;;4961667;28;20211;-68
2021/03/15 13:24:11;;;;;;;1.90;1.10;;;7.60;99.90;;;;;;4957347;28;20334;-68
2021/03/15 13:26:37;;;;;;;2.57;1.40;;;7.60;99.90;;;;;;4956395;28;20194;-68
2021/03/15 13:29:05;;;;;;;2.30;1.20;;;7.60;99.90;;;;;;4957327;28;20614;-67
2021/03/15 13:31:31;;;;;;;2.13;1.30;;;7.60;99.90;;;;;;4932877;28;25868;-68
2021/03/15 13:33:57;;;;;;;4.30;2.33;;;7.50;99.90;;;;;;4953989;28;21096;-68